メインページ
METAR-TAF:

METAR-TAF

空港 :

松山空港

松山, 日本

緯度: 33-49N, 経度: 132-42E, 海抜: 4m

現時点の気象観測

当レポートは21分前の09:00(UTC)に作成
南西の風 4kt
気温 24°C
湿度 83%
気圧 1004 hPa
視程10km以上
高度3000ftの雲はほとんどない

METAR: RJOM 130900Z 22004KT 9999 FEW030 24/21 Q1004

時間: 18:21 (09:21 UTC)

予報

当レポートは4時間16分前の05:05(UTC)に作成
予報は13日の 06時(UTC)から 14日の 12時(UTC)まで有効
西/南西の風 7kt
視程10km以上
高度3000ftの雲はほとんどない
13日の 08時(UTC)から 13日の 10時(UTC)まで徐々に
東/南東の風 4kt
13日の 21時(UTC)から 14日の 00時(UTC)まで徐々に
北西の風 6kt

TAF: RJOM 130505Z 1306/1412 24007KT 9999 FEW030 BECMG 1308/1310 12004KT BECMG 1321/1400 31006KT

4,000以上の空港の気象観測と天気予報(METAR報とTAF報)

利用可能な観測所は地図上に黄色い丸と赤い丸で示す。

丸の上にカーソルを重ねると観測所名を参照できる。

次にクリックすると気象観測と天気予報を参照できる。

マップの切り替え:黒色「×」印の緑ボタンをクリックして拡大、「-」印の緑ボタンをクリックして縮小、緑色の三角印をクリックして隣りの地図に切り替え


METAR-TAF: